Time;durP1;ratioP1;P1;durP2;ratioP2;P2;SDS_P1;SDS_P2;PMS_P1;PMS_P2;Temp;Humidity;BMP_temperature;BMP_pressure;BME280_temperature;BME280_humidity;BME280_pressure;Samples;Min_cycle;Max_cycle;Signal;HPM_P1;HPM_P2
2023/04/02 12:02:02;;;;;;;5.88;4.68;;;10.20;99.90;;;;;;5092335;27;20583;-47
2023/04/02 12:05:06;;;;;;;8.35;5.47;;;10.10;99.90;;;;;;5041945;28;20693;-49
2023/04/02 12:08:10;;;;;;;11.27;6.00;;;10.10;99.90;;;;;;5015400;28;20449;-48
2023/04/02 12:10:54;;;;;;;11.17;5.70;;;10.10;99.90;;;;;;5001039;28;20217;-49
2023/04/02 12:13:49;;;;;;;7.60;5.50;;;10.20;99.90;;;;;;4997644;28;20450;-48
2023/04/02 12:16:19;;;;;;;6.53;4.80;;;10.30;99.90;;;;;;4999327;28;20503;-48
2023/04/02 12:18:53;;;;;;;14.03;5.20;;;10.40;99.90;;;;;;5001368;28;20524;-48
2023/04/02 12:21:25;;;;;;;14.10;5.20;;;10.50;99.90;;;;;;5002678;28;20533;-47
2023/04/02 12:23:57;;;;;;;11.70;5.33;;;10.50;99.90;;;;;;5008977;28;20476;-50
2023/04/02 12:26:36;;;;;;;14.00;5.23;;;10.60;99.90;;;;;;5022811;28;20527;-49
2023/04/02 12:29:17;;;;;;;10.40;6.27;;;10.60;99.90;;;;;;5018965;28;20476;-48
2023/04/02 12:31:47;;;;;;;8.93;4.43;;;10.60;99.90;;;;;;5022950;28;20463;-49
2023/04/02 12:34:23;;;;;;;8.17;4.30;;;10.60;99.90;;;;;;5017343;28;20909;-48
2023/04/02 12:36:54;;;;;;;6.13;4.10;;;10.60;99.90;;;;;;5032101;28;20433;-49
2023/04/02 12:39:23;;;;;;;7.00;3.80;;;10.70;99.90;;;;;;5022461;28;20553;-48
2023/04/02 12:41:55;;;;;;;6.03;4.17;;;10.70;99.90;;;;;;5015544;28;20477;-47
2023/04/02 12:44:27;;;;;;;10.40;4.40;;;10.70;99.90;;;;;;5022967;28;20497;-48
2023/04/02 12:46:56;;;;;;;5.30;3.93;;;10.70;99.90;;;;;;5033536;28;21119;-46
2023/04/02 12:49:35;;;;;;;5.47;4.10;;;10.70;99.90;;;;;;5020887;28;20467;-47
2023/04/02 12:52:06;;;;;;;4.23;3.63;;;10.70;99.90;;;;;;5022391;28;20470;-48
2023/04/02 12:54:43;;;;;;;6.47;4.10;;;10.80;99.90;;;;;;5017545;28;20480;-49
2023/04/02 12:57:38;;;;;;;4.97;4.20;;;10.70;99.90;;;;;;5036810;28;20450;-49
2023/04/02 13:00:31;;;;;;;4.90;3.80;;;10.60;99.90;;;;;;5020426;28;20464;-48
2023/04/02 13:03:02;;;;;;;5.13;3.73;;;10.50;99.90;;;;;;5017422;28;20456;-48
2023/04/02 13:05:40;;;;;;;6.73;4.10;;;10.50;99.90;;;;;;5023640;28;20462;-49
2023/04/02 13:08:17;;;;;;;4.57;4.10;;;10.40;99.90;;;;;;5025194;28;20525;-49
2023/04/02 13:10:51;;;;;;;10.07;3.97;;;10.50;99.90;;;;;;5021314;28;20460;-50
2023/04/02 13:13:40;;;;;;;6.90;4.30;;;10.50;99.90;;;;;;5010739;28;20453;-49
2023/04/02 13:16:26;;;;;;;8.50;4.93;;;10.50;99.90;;;;;;5024090;28;20516;-48
2023/04/02 13:19:22;;;;;;;6.20;3.90;;;10.50;99.90;;;;;;5027129;28;20846;-48
2023/04/02 13:21:54;;;;;;;6.83;4.20;;;10.50;99.90;;;;;;5009845;28;20472;-48
2023/04/02 13:24:24;;;;;;;4.83;3.60;;;10.50;99.90;;;;;;5012656;28;20499;-48
2023/04/02 13:26:55;;;;;;;7.43;4.00;;;10.40;99.90;;;;;;5007856;28;20441;-46
2023/04/02 13:29:27;;;;;;;3.90;3.17;;;10.40;99.90;;;;;;5003759;28;20584;-48
2023/04/02 13:31:58;;;;;;;9.03;4.70;;;10.50;99.90;;;;;;5010937;28;20803;-48
2023/04/02 13:34:31;;;;;;;5.20;4.00;;;10.50;99.90;;;;;;5022307;28;20481;-48
2023/04/02 13:37:01;;;;;;;8.67;4.30;;;10.40;99.90;;;;;;5008837;28;20487;-48
2023/04/02 13:39:33;;;;;;;7.10;4.73;;;10.40;99.90;;;;;;5001508;28;20559;-47
2023/04/02 13:42:05;;;;;;;5.70;4.20;;;10.30;99.90;;;;;;5009600;28;21038;-48
2023/04/02 13:44:37;;;;;;;6.20;4.00;;;10.40;99.90;;;;;;5009905;28;20507;-47
2023/04/02 13:47:06;;;;;;;7.57;5.10;;;10.30;99.90;;;;;;5005293;28;20456;-49
2023/04/02 13:49:34;;;;;;;9.73;4.17;;;10.30;99.90;;;;;;5010853;28;21049;-49
2023/04/02 13:52:10;;;;;;;4.63;4.20;;;10.30;99.90;;;;;;5010383;28;20479;-47
2023/04/02 13:54:43;;;;;;;11.87;4.53;;;10.40;99.90;;;;;;5008941;28;20883;-48
2023/04/02 13:57:12;;;;;;;7.93;3.70;;;10.50;99.90;;;;;;5009892;28;20537;-49
2023/04/02 13:59:41;;;;;;;7.30;4.83;;;10.50;99.90;;;;;;5017205;28;20506;-49
2023/04/02 14:02:12;;;;;;;8.97;4.17;;;10.50;99.90;;;;;;5007036;28;20492;-48
2023/04/02 14:04:45;;;;;;;6.40;4.00;;;10.50;99.90;;;;;;5006367;28;20465;-49
2023/04/02 14:07:38;;;;;;;9.43;4.13;;;10.50;99.90;;;;;;5004562;28;20967;-49
2023/04/02 14:10:20;;;;;;;6.83;3.33;;;10.50;99.90;;;;;;5009184;28;20585;-49
2023/04/02 14:13:05;;;;;;;8.93;3.70;;;10.50;99.90;;;;;;5009005;28;20487;-49
2023/04/02 14:15:48;;;;;;;8.27;4.37;;;10.50;99.90;;;;;;5010384;28;20496;-48
2023/04/02 14:18:35;;;;;;;11.13;3.60;;;10.50;99.90;;;;;;5002815;28;20822;-47
2023/04/02 14:21:14;;;;;;;10.70;4.70;;;10.60;99.90;;;;;;5009889;28;20473;-47
2023/04/02 14:24:06;;;;;;;6.63;3.57;;;10.50;99.90;;;;;;5006718;28;20492;-48
2023/04/02 14:26:46;;;;;;;10.70;4.50;;;10.50;99.90;;;;;;5017832;28;20496;-47
2023/04/02 14:29:20;;;;;;;8.50;4.10;;;10.50;99.90;;;;;;5006221;28;20571;-48
2023/04/02 14:31:56;;;;;;;5.90;4.00;;;10.50;99.90;;;;;;5000462;28;20851;-47
2023/04/02 14:34:33;;;;;;;9.30;3.27;;;10.50;99.90;;;;;;5008358;28;20474;-47
2023/04/02 14:37:12;;;;;;;8.93;3.00;;;10.50;99.90;;;;;;5008697;28;20445;-47
2023/04/02 14:39:56;;;;;;;16.93;4.10;;;10.50;99.90;;;;;;5007921;28;20485;-49
2023/04/02 14:42:33;;;;;;;14.40;4.40;;;10.50;99.90;;;;;;5011536;28;21007;-48
2023/04/02 14:45:08;;;;;;;16.13;4.70;;;10.50;99.90;;;;;;5008059;28;20507;-48
2023/04/02 14:47:43;;;;;;;13.83;3.47;;;10.60;99.90;;;;;;5004884;28;20448;-48
2023/04/02 14:50:17;;;;;;;25.53;4.07;;;10.60;99.90;;;;;;5016703;28;20548;-47
2023/04/02 14:52:51;;;;;;;5.27;3.13;;;10.60;99.90;;;;;;5022218;28;20939;-49
2023/04/02 14:55:27;;;;;;;5.60;2.83;;;10.50;99.90;;;;;;4999665;28;20527;-49
2023/04/02 14:57:59;;;;;;;4.43;2.97;;;10.30;99.90;;;;;;5002356;28;20467;-49
2023/04/02 15:00:36;;;;;;;4.80;2.57;;;10.00;99.90;;;;;;5005525;28;20473;-49
2023/04/02 15:03:11;;;;;;;8.90;2.50;;;10.00;99.90;;;;;;5025263;28;20538;-47
2023/04/02 15:05:43;;;;;;;9.63;3.10;;;10.10;99.90;;;;;;5017196;28;20453;-47
2023/04/02 15:08:20;;;;;;;9.30;3.43;;;10.20;99.90;;;;;;5006078;28;21065;-47
2023/04/02 15:11:02;;;;;;;6.53;3.13;;;10.30;99.90;;;;;;5003401;28;20521;-48
2023/04/02 15:13:38;;;;;;;14.75;4.10;;;10.40;99.90;;;;;;5019906;28;20451;-47
2023/04/02 15:16:11;;;;;;;12.87;3.40;;;10.40;99.90;;;;;;5003544;28;20194;-49
2023/04/02 15:18:40;;;;;;;6.30;3.60;;;10.50;99.90;;;;;;5002013;28;20455;-48
2023/04/02 15:21:45;;;;;;;9.80;3.53;;;10.50;99.90;;;;;;5007287;28;20892;-49
2023/04/02 15:24:36;;;;;;;5.57;3.13;;;10.50;99.90;;;;;;5024440;28;20488;-49
2023/04/02 15:27:17;;;;;;;21.27;3.97;;;10.50;99.90;;;;;;4999023;28;20800;-48
2023/04/02 15:30:01;;;;;;;11.97;4.67;;;10.50;99.90;;;;;;5005298;28;20924;-48
2023/04/02 15:32:37;;;;;;;5.30;2.77;;;10.50;99.90;;;;;;5028495;28;20553;-46
2023/04/02 15:35:20;;;;;;;8.43;3.40;;;10.50;99.90;;;;;;5005172;28;20547;-48
2023/04/02 15:37:59;;;;;;;9.00;3.13;;;10.50;99.90;;;;;;5006178;28;20874;-49
2023/04/02 15:40:53;;;;;;;7.27;3.10;;;10.50;99.90;;;;;;5019313;28;20730;-50
2023/04/02 15:43:29;;;;;;;4.77;2.87;;;10.50;99.90;;;;;;5008813;28;20528;-49
2023/04/02 15:46:12;;;;;;;5.43;2.50;;;10.50;99.90;;;;;;5005565;28;20531;-47
2023/04/02 15:49:03;;;;;;;6.37;2.60;;;10.50;99.90;;;;;;4998356;28;20926;-46
2023/04/02 15:51:54;;;;;;;4.60;2.90;;;10.50;99.90;;;;;;5016023;28;20540;-46
2023/04/02 15:54:37;;;;;;;7.07;2.60;;;10.50;99.90;;;;;;5009929;28;20469;-47
2023/04/02 15:57:22;;;;;;;8.43;2.93;;;10.50;99.90;;;;;;5008928;28;20507;-47
2023/04/02 16:00:14;;;;;;;5.40;2.30;;;10.50;99.90;;;;;;5016936;28;20488;-48
2023/04/02 16:03:04;;;;;;;5.07;1.87;;;10.50;99.90;;;;;;5017628;28;20523;-47
2023/04/02 16:05:42;;;;;;;9.50;2.60;;;10.50;99.90;;;;;;5007713;28;20981;-46
2023/04/02 16:08:29;;;;;;;2.60;2.40;;;10.50;99.90;;;;;;5001367;28;20843;-47
2023/04/02 16:10:58;;;;;;;4.53;2.33;;;10.30;99.90;;;;;;5003071;28;20463;-48
2023/04/02 16:13:31;;;;;;;3.97;2.40;;;10.10;99.90;;;;;;5005683;28;20254;-46
2023/04/02 16:16:06;;;;;;;3.03;2.30;;;10.10;99.90;;;;;;5000338;28;20441;-50
2023/04/02 16:18:50;;;;;;;2.63;2.40;;;10.20;99.90;;;;;;5006045;28;20445;-47
2023/04/02 16:21:22;;;;;;;3.33;2.30;;;10.20;99.90;;;;;;5007034;28;20557;-48
2023/04/02 16:23:51;;;;;;;3.63;2.17;;;10.30;99.90;;;;;;5018898;28;20553;-47
2023/04/02 16:26:40;;;;;;;1.73;1.63;;;10.30;99.90;;;;;;5006288;28;20473;-48
2023/04/02 16:29:31;;;;;;;3.87;2.30;;;10.40;99.90;;;;;;5000690;28;20472;-47
2023/04/02 16:32:25;;;;;;;5.43;2.63;;;10.40;99.90;;;;;;5003167;28;20474;-48
2023/04/02 16:35:03;;;;;;;4.90;2.03;;;10.40;99.90;;;;;;4999559;28;20484;-49
2023/04/02 16:37:58;;;;;;;3.00;2.10;;;10.40;99.90;;;;;;5009509;28;20441;-49
2023/04/02 16:40:37;;;;;;;2.53;2.10;;;10.40;99.90;;;;;;5009018;28;20488;-48
2023/04/02 16:43:18;;;;;;;5.73;2.60;;;10.40;99.90;;;;;;5020518;28;20557;-48
2023/04/02 16:46:01;;;;;;;4.40;2.43;;;10.40;99.90;;;;;;5007508;28;20967;-48
2023/04/02 16:48:41;;;;;;;3.90;2.47;;;10.40;99.90;;;;;;5002739;28;20462;-50
2023/04/02 16:51:19;;;;;;;3.70;2.43;;;10.40;99.90;;;;;;5008105;28;20456;-47
2023/04/02 16:53:56;;;;;;;3.60;2.90;;;10.40;99.90;;;;;;5002626;28;20445;-47
2023/04/02 16:56:40;;;;;;;2.37;2.17;;;10.40;99.90;;;;;;5020157;28;20495;-48
2023/04/02 16:59:19;;;;;;;3.40;2.80;;;10.40;99.90;;;;;;5008433;28;21080;-47
2023/04/02 17:01:59;;;;;;;3.10;1.80;;;10.40;99.90;;;;;;5020132;28;20484;-49
2023/04/02 17:04:52;;;;;;;2.13;2.03;;;10.40;99.90;;;;;;5005196;28;20518;-47
2023/04/02 17:07:34;;;;;;;2.50;2.30;;;10.40;99.90;;;;;;5007661;28;20465;-47
2023/04/02 17:10:21;;;;;;;2.70;1.87;;;10.40;99.90;;;;;;5027011;28;20497;-48
2023/04/02 17:12:58;;;;;;;2.43;2.00;;;10.40;99.90;;;;;;5022555;28;20477;-48
2023/04/02 17:15:35;;;;;;;1.77;1.67;;;10.40;99.90;;;;;;5008065;28;20446;-47
2023/04/02 17:18:13;;;;;;;4.67;2.57;;;10.40;99.90;;;;;;5008091;28;20445;-48
2023/04/02 17:20:43;;;;;;;3.30;2.20;;;10.40;99.90;;;;;;5008295;28;20449;-47
2023/04/02 17:23:15;;;;;;;3.43;2.20;;;10.40;99.90;;;;;;5007262;28;20509;-49
2023/04/02 17:25:50;;;;;;;5.57;2.20;;;10.40;99.90;;;;;;5004674;28;20438;-48
2023/04/02 17:28:24;;;;;;;2.20;2.10;;;10.40;99.90;;;;;;5018830;28;20483;-48
2023/04/02 17:30:55;;;;;;;3.03;2.20;;;10.40;99.90;;;;;;5004621;28;20561;-49
2023/04/02 17:33:27;;;;;;;3.40;2.40;;;10.40;99.90;;;;;;5002058;28;20462;-48
2023/04/02 17:36:15;;;;;;;2.50;2.30;;;10.40;99.90;;;;;;5002355;28;20453;-49
2023/04/02 17:38:55;;;;;;;3.60;2.63;;;10.40;99.90;;;;;;5018766;28;20443;-50
2023/04/02 17:41:34;;;;;;;2.30;2.10;;;10.40;99.90;;;;;;5020845;28;20552;-48
2023/04/02 17:44:18;;;;;;;2.50;2.23;;;10.40;99.90;;;;;;5007523;28;20843;-49
2023/04/02 17:46:53;;;;;;;4.83;1.97;;;10.40;99.90;;;;;;5005692;28;20441;-48
2023/04/02 17:49:28;;;;;;;2.57;2.00;;;10.40;99.90;;;;;;5007401;28;20482;-48
2023/04/02 17:52:03;;;;;;;2.70;2.50;;;10.40;99.90;;;;;;5013823;28;20461;-48
2023/04/02 17:54:41;;;;;;;3.40;2.10;;;10.40;99.90;;;;;;5009324;28;20484;-49
2023/04/02 17:57:23;;;;;;;2.70;2.50;;;10.40;99.90;;;;;;5010352;28;20426;-49
2023/04/02 18:00:27;;;;;;;4.70;2.90;;;10.40;99.90;;;;;;5008995;28;21059;-47
2023/04/02 18:03:15;;;;;;;1.73;1.63;;;10.40;99.90;;;;;;4998011;28;20478;-46
2023/04/02 18:05:50;;;;;;;2.57;2.37;;;10.40;99.90;;;;;;5000323;28;20467;-48
2023/04/02 18:08:27;;;;;;;3.33;1.90;;;10.40;99.90;;;;;;5007488;28;20456;-50
2023/04/02 18:11:07;;;;;;;2.33;2.10;;;10.40;99.90;;;;;;5008841;28;20810;-49
2023/04/02 18:13:40;;;;;;;2.17;1.97;;;10.40;99.90;;;;;;5005789;28;20465;-50
2023/04/02 18:16:34;;;;;;;3.03;2.47;;;10.40;99.90;;;;;;5005039;28;20453;-48
2023/04/02 18:19:17;;;;;;;1.67;1.57;;;10.40;99.90;;;;;;5006034;28;20572;-49
2023/04/02 18:21:54;;;;;;;2.17;2.07;;;10.40;99.90;;;;;;5007583;28;20489;-48
2023/04/02 18:24:45;;;;;;;2.17;1.90;;;10.40;99.90;;;;;;5004255;28;20491;-48
2023/04/02 18:27:29;;;;;;;2.87;2.20;;;10.50;99.90;;;;;;5005988;28;20450;-49
2023/04/02 18:30:10;;;;;;;2.10;1.90;;;10.50;99.90;;;;;;5007590;28;20827;-48
2023/04/02 18:33:03;;;;;;;2.70;2.00;;;10.50;99.90;;;;;;5021840;28;20457;-50
2023/04/02 18:35:33;;;;;;;2.80;1.93;;;10.50;99.90;;;;;;5018892;28;20451;-49
2023/04/02 18:38:18;;;;;;;2.27;2.07;;;10.40;99.90;;;;;;5005525;28;20437;-50
2023/04/02 18:41:02;;;;;;;1.97;1.87;;;10.50;99.90;;;;;;5004496;28;20472;-48
2023/04/02 18:43:43;;;;;;;1.80;1.70;;;10.40;99.90;;;;;;5005929;28;20472;-48
2023/04/02 18:46:21;;;;;;;2.30;1.73;;;10.40;99.90;;;;;;5007996;28;20950;-49
2023/04/02 18:48:56;;;;;;;2.37;2.10;;;10.40;99.90;;;;;;5007497;28;20470;-50
2023/04/02 18:51:28;;;;;;;2.73;1.83;;;10.40;99.90;;;;;;5012471;28;20461;-49
2023/04/02 18:54:10;;;;;;;2.43;2.30;;;10.40;99.90;;;;;;5008605;28;20806;-47
2023/04/02 18:56:41;;;;;;;2.00;1.67;;;10.40;99.90;;;;;;5010728;28;20450;-48
2023/04/02 18:59:26;;;;;;;2.50;1.67;;;10.40;99.90;;;;;;5007015;28;20469;-47
2023/04/02 19:01:58;;;;;;;1.67;1.57;;;10.40;99.90;;;;;;5002681;28;20531;-48
2023/04/02 19:04:30;;;;;;;2.40;1.80;;;10.40;99.90;;;;;;5007777;28;20981;-47
2023/04/02 19:07:04;;;;;;;2.23;1.80;;;10.40;99.90;;;;;;5008997;28;20852;-47
2023/04/02 19:09:36;;;;;;;2.30;2.10;;;10.40;99.90;;;;;;5004020;28;20465;-49
2023/04/02 19:12:17;;;;;;;1.90;1.80;;;10.40;99.90;;;;;;5008683;28;20581;-47
2023/04/02 19:14:47;;;;;;;4.03;2.03;;;10.40;99.90;;;;;;5008491;28;20541;-50
2023/04/02 19:17:30;;;;;;;2.97;2.70;;;10.40;99.90;;;;;;5007260;28;20453;-48
2023/04/02 19:20:07;;;;;;;1.97;1.80;;;10.40;99.90;;;;;;5007680;28;20492;-48
2023/04/02 19:22:44;;;;;;;2.57;1.93;;;10.40;99.90;;;;;;4995679;28;20960;-50
2023/04/02 19:25:29;;;;;;;2.13;2.03;;;10.40;99.90;;;;;;5004387;28;20475;-48
2023/04/02 19:28:12;;;;;;;2.00;1.80;;;10.40;99.90;;;;;;5010024;28;20493;-49
2023/04/02 19:30:55;;;;;;;2.40;2.10;;;10.40;99.90;;;;;;4995431;28;20475;-47
2023/04/02 19:33:36;;;;;;;2.40;2.20;;;10.40;99.90;;;;;;5003778;28;20453;-48
2023/04/02 19:36:18;;;;;;;2.13;1.93;;;10.40;99.90;;;;;;5004107;28;20484;-48
2023/04/02 19:38:57;;;;;;;2.23;2.03;;;10.40;99.90;;;;;;5003814;28;20473;-47
2023/04/02 19:41:31;;;;;;;2.30;2.10;;;10.40;99.90;;;;;;5007469;28;20515;-48
2023/04/02 19:44:01;;;;;;;2.30;2.07;;;10.40;99.90;;;;;;5008407;28;20478;-48
2023/04/02 19:46:30;;;;;;;2.50;2.17;;;10.40;99.90;;;;;;5008682;28;20810;-49
2023/04/02 19:49:07;;;;;;;2.10;1.97;;;10.40;99.90;;;;;;5007277;28;20553;-48
2023/04/02 19:51:36;;;;;;;2.03;1.93;;;10.40;99.90;;;;;;5004215;28;20508;-49
2023/04/02 19:54:05;;;;;;;1.73;1.50;;;10.40;99.90;;;;;;5014247;28;20478;-48
2023/04/02 19:56:34;;;;;;;2.00;1.70;;;10.40;99.90;;;;;;5007327;28;20950;-49
2023/04/02 19:59:04;;;;;;;2.30;1.90;;;10.40;99.90;;;;;;5007045;28;20438;-48
2023/04/02 20:01:45;;;;;;;2.20;1.90;;;10.40;99.90;;;;;;4987657;28;21198;-48
2023/04/02 20:04:14;;;;;;;2.27;2.07;;;10.40;99.90;;;;;;5008549;28;20469;-48
2023/04/02 20:06:43;;;;;;;4.80;2.20;;;10.40;99.90;;;;;;5001109;28;20817;-48
2023/04/02 20:09:12;;;;;;;1.93;1.83;;;10.30;99.90;;;;;;5004746;28;20827;-50
2023/04/02 20:11:40;;;;;;;2.23;1.90;;;10.40;99.90;;;;;;5007569;28;20471;-48
2023/04/02 20:14:10;;;;;;;2.57;1.80;;;10.30;99.90;;;;;;5004699;28;20682;-48
2023/04/02 20:16:39;;;;;;;2.20;2.00;;;10.30;99.90;;;;;;5020936;28;20865;-49
2023/04/02 20:19:08;;;;;;;1.70;1.60;;;10.30;99.90;;;;;;5003112;28;20457;-47
2023/04/02 20:21:37;;;;;;;2.03;1.90;;;10.30;99.90;;;;;;5006307;28;20548;-49
2023/04/02 20:24:07;;;;;;;2.10;2.00;;;10.30;99.90;;;;;;5009140;28;20555;-48
2023/04/02 20:26:35;;;;;;;1.80;1.70;;;10.30;99.90;;;;;;5015236;28;20495;-47
2023/04/02 20:29:04;;;;;;;2.27;2.07;;;10.30;99.90;;;;;;5008240;28;21551;-48
2023/04/02 20:31:35;;;;;;;1.87;1.77;;;10.30;99.90;;;;;;5010344;28;20481;-48
2023/04/02 20:34:07;;;;;;;2.27;2.07;;;10.30;99.90;;;;;;5012014;28;20447;-47
2023/04/02 20:36:36;;;;;;;1.93;1.83;;;10.30;99.90;;;;;;5008094;28;20437;-49
2023/04/02 20:39:06;;;;;;;2.23;1.90;;;10.30;99.90;;;;;;5007180;28;20481;-47
2023/04/02 20:41:35;;;;;;;2.27;1.90;;;10.30;99.90;;;;;;5010381;28;20556;-49
2023/04/02 20:44:03;;;;;;;1.73;1.63;;;10.30;99.90;;;;;;5016572;28;20437;-49
2023/04/02 20:46:33;;;;;;;2.20;2.10;;;10.30;99.90;;;;;;5011116;28;20442;-47
2023/04/02 20:49:02;;;;;;;2.07;1.70;;;10.30;99.90;;;;;;5011870;28;20422;-48
2023/04/02 20:51:31;;;;;;;2.50;2.30;;;10.30;99.90;;;;;;5007194;28;20974;-48
2023/04/02 20:54:00;;;;;;;2.60;2.40;;;10.30;99.90;;;;;;5026234;28;20536;-49
2023/04/02 20:56:29;;;;;;;1.87;1.70;;;10.30;99.90;;;;;;5004558;28;20485;-50
2023/04/02 20:58:57;;;;;;;2.13;2.03;;;10.30;99.90;;;;;;5009351;28;21074;-47
2023/04/02 21:01:28;;;;;;;2.13;1.97;;;10.30;99.90;;;;;;5024462;28;20918;-50
2023/04/02 21:04:01;;;;;;;1.73;1.63;;;10.30;99.90;;;;;;5005243;28;20448;-48
2023/04/02 21:06:31;;;;;;;3.00;1.90;;;10.30;99.90;;;;;;5009599;28;20449;-49
2023/04/02 21:09:01;;;;;;;1.70;1.53;;;10.30;99.90;;;;;;5002472;28;20479;-48
2023/04/02 21:11:30;;;;;;;2.20;2.00;;;10.30;99.90;;;;;;5007027;28;20551;-48
2023/04/02 21:13:59;;;;;;;2.30;2.10;;;10.30;99.90;;;;;;5012955;28;20465;-47
2023/04/02 21:16:30;;;;;;;2.40;2.20;;;10.30;99.90;;;;;;5023142;28;20454;-48
2023/04/02 21:19:02;;;;;;;2.20;2.00;;;10.30;99.90;;;;;;5006095;28;20492;-48
2023/04/02 21:21:31;;;;;;;1.77;1.67;;;10.30;99.90;;;;;;5020513;28;20831;-49
2023/04/02 21:24:02;;;;;;;2.17;1.97;;;10.30;99.90;;;;;;5007020;28;20481;-49
2023/04/02 21:26:33;;;;;;;1.83;1.73;;;10.30;99.90;;;;;;5022204;28;20482;-48
2023/04/02 21:29:03;;;;;;;2.03;1.90;;;10.30;99.90;;;;;;5008396;28;20801;-49
2023/04/02 21:31:35;;;;;;;2.40;2.20;;;10.30;99.90;;;;;;5005468;28;20523;-49
2023/04/02 21:34:06;;;;;;;2.70;2.50;;;10.30;99.90;;;;;;5003114;28;20445;-46
2023/04/02 21:36:37;;;;;;;1.87;1.77;;;10.30;99.90;;;;;;5009098;28;20438;-47
2023/04/02 21:39:07;;;;;;;2.13;1.93;;;10.30;99.90;;;;;;5009033;28;20530;-49
2023/04/02 21:41:39;;;;;;;1.53;1.43;;;10.20;99.90;;;;;;5025731;28;20828;-48
2023/04/02 21:44:09;;;;;;;1.70;1.60;;;10.30;99.90;;;;;;5006896;28;20433;-48
2023/04/02 21:46:41;;;;;;;1.60;1.50;;;10.30;99.90;;;;;;5005542;28;20477;-46
2023/04/02 21:49:12;;;;;;;1.97;1.67;;;10.20;99.90;;;;;;5016930;28;20488;-48
2023/04/02 21:51:42;;;;;;;2.07;1.70;;;10.30;99.90;;;;;;5006626;28;20445;-48
2023/04/02 21:54:11;;;;;;;1.70;1.60;;;10.30;99.90;;;;;;5008009;28;20861;-48
2023/04/02 21:56:42;;;;;;;2.00;1.80;;;10.30;99.90;;;;;;5000815;28;20442;-49
2023/04/02 21:59:12;;;;;;;1.80;1.70;;;10.20;99.90;;;;;;5007055;28;20517;-49
2023/04/02 22:01:43;;;;;;;2.27;2.07;;;10.30;99.90;;;;;;5004140;28;20473;-49
2023/04/02 22:04:16;;;;;;;2.13;1.70;;;10.30;99.90;;;;;;5007592;28;20444;-47
2023/04/02 22:06:45;;;;;;;2.23;2.03;;;10.30;99.90;;;;;;5024945;28;20476;-49
2023/04/02 22:09:16;;;;;;;2.23;2.03;;;10.30;99.90;;;;;;5023218;28;20469;-50
2023/04/02 22:11:47;;;;;;;1.70;1.60;;;10.20;99.90;;;;;;5004480;28;20555;-47
2023/04/02 22:14:16;;;;;;;1.30;1.20;;;10.20;99.90;;;;;;5010197;28;20445;-50
2023/04/02 22:16:45;;;;;;;1.97;1.87;;;10.20;99.90;;;;;;5009318;28;20446;-49
2023/04/02 22:19:16;;;;;;;2.07;1.87;;;10.20;99.90;;;;;;5006850;28;20473;-50
2023/04/02 22:21:45;;;;;;;1.83;1.67;;;10.20;99.90;;;;;;5002462;28;20477;-49
2023/04/02 22:24:17;;;;;;;1.53;1.43;;;10.20;99.90;;;;;;5007208;28;20456;-49
2023/04/02 22:26:46;;;;;;;1.60;1.50;;;10.20;99.90;;;;;;5032272;28;20484;-48
2023/04/02 22:29:15;;;;;;;1.77;1.63;;;10.20;99.90;;;;;;5018663;28;20476;-49
2023/04/02 22:31:44;;;;;;;2.10;1.90;;;10.20;99.90;;;;;;5018423;28;20477;-48
2023/04/02 22:34:14;;;;;;;1.87;1.77;;;10.20;99.90;;;;;;5014593;28;20453;-48
2023/04/02 22:36:43;;;;;;;1.93;1.83;;;10.20;99.90;;;;;;5023002;28;20471;-48
2023/04/02 22:39:12;;;;;;;1.93;1.80;;;10.20;99.90;;;;;;5023400;28;20904;-48
2023/04/02 22:41:40;;;;;;;1.57;1.47;;;10.20;99.90;;;;;;5021300;28;20480;-49
2023/04/02 22:44:14;;;;;;;1.43;1.33;;;10.20;99.90;;;;;;5017858;28;20450;-48
2023/04/02 22:46:42;;;;;;;1.43;1.33;;;10.20;99.90;;;;;;5019900;28;20475;-49
2023/04/02 22:49:14;;;;;;;1.90;1.80;;;10.20;99.90;;;;;;5022251;28;20425;-49
2023/04/02 22:51:44;;;;;;;2.03;1.93;;;10.20;99.90;;;;;;5012668;28;20832;-48
2023/04/02 22:54:13;;;;;;;1.80;1.70;;;10.20;99.90;;;;;;5007932;28;20557;-49
2023/04/02 22:56:42;;;;;;;1.50;1.33;;;10.20;99.90;;;;;;5012763;28;20447;-49
2023/04/02 22:59:10;;;;;;;1.83;1.73;;;10.20;99.90;;;;;;5008376;28;20566;-49
2023/04/02 23:01:39;;;;;;;1.50;1.40;;;10.20;99.90;;;;;;5004007;28;20540;-47
2023/04/02 23:04:08;;;;;;;1.70;1.60;;;10.20;99.90;;;;;;5006518;28;20516;-50
2023/04/02 23:06:37;;;;;;;1.60;1.50;;;10.20;99.90;;;;;;5002996;28;20495;-48
2023/04/02 23:09:07;;;;;;;1.70;1.60;;;10.20;99.90;;;;;;4996062;28;20473;-49
2023/04/02 23:11:36;;;;;;;2.00;1.80;;;10.20;99.90;;;;;;5007499;28;20504;-48
2023/04/02 23:14:05;;;;;;;1.60;1.50;;;10.20;99.90;;;;;;5005232;28;20519;-50
2023/04/02 23:16:36;;;;;;;1.47;1.37;;;10.20;99.90;;;;;;5005463;28;20947;-49
2023/04/02 23:19:05;;;;;;;1.70;1.60;;;10.10;99.90;;;;;;5018929;28;20807;-50
2023/04/02 23:21:36;;;;;;;1.63;1.33;;;10.20;99.90;;;;;;5012942;28;20504;-47
2023/04/02 23:24:07;;;;;;;1.97;1.80;;;10.10;99.90;;;;;;5016584;28;20452;-48
2023/04/02 23:26:35;;;;;;;2.80;1.50;;;10.10;99.90;;;;;;4998928;28;20485;-48
2023/04/02 23:29:05;;;;;;;2.20;1.37;;;10.10;99.90;;;;;;5003323;28;20873;-49
2023/04/02 23:31:33;;;;;;;1.70;1.60;;;10.10;99.90;;;;;;5014004;28;20476;-49
2023/04/02 23:34:02;;;;;;;1.63;1.53;;;10.10;99.90;;;;;;5007860;28;20447;-48
2023/04/02 23:36:32;;;;;;;1.67;1.57;;;10.10;99.90;;;;;;5004071;28;20460;-49
2023/04/02 23:39:04;;;;;;;2.07;1.87;;;10.10;99.90;;;;;;5003946;28;20449;-48
2023/04/02 23:41:34;;;;;;;1.73;1.63;;;10.10;99.90;;;;;;5004302;28;20483;-48
2023/04/02 23:44:04;;;;;;;2.13;1.43;;;10.10;99.90;;;;;;5006747;28;20530;-47
2023/04/02 23:46:33;;;;;;;1.60;1.50;;;10.10;99.90;;;;;;5002023;28;20556;-48
2023/04/02 23:49:02;;;;;;;2.60;1.80;;;10.10;99.90;;;;;;5002684;28;20448;-49
2023/04/02 23:51:32;;;;;;;2.60;1.43;;;10.10;99.90;;;;;;5018357;28;20492;-47
2023/04/02 23:54:00;;;;;;;1.70;1.60;;;10.10;99.90;;;;;;5003594;28;20481;-48
2023/04/02 23:56:29;;;;;;;1.57;1.30;;;10.10;99.90;;;;;;5007752;28;20438;-49
2023/04/02 23:58:59;;;;;;;1.70;1.60;;;10.10;99.90;;;;;;5009116;28;20838;-48
